Station History

Weather Underground - logo

Station Historical Data
Daily Summary for January 12, 2018 Units:  Both    English   Metric
« Previous Day
Next Day »
Daily Weekly Monthly Yearly Custom
  High: Low: Average:
Temperature: 62.0 °F /  16.7 °C 46.6 °F /  8.1 °C 54.1 °F /  12.3 °C
Dew Point: 54.2 °F /  12.3 °C 45.2 °F /  7.3 °C 50.8 °F /  10.4 °C
Humidity: 96 % 75 % 89 %
Wind Speed: 3.5 mph /  5.6 km/h - 0.7 mph /  1.1 km/h
Wind Gust: 3.5 mph /  5.6 km/h - -
Wind:- - SW
Pressure: 30.41 in /  1029.7 hPa 30.29 in /  1025.6 hPa -
Precipitation: 0.00 in /  0 mm    
Historical Graphs
 
 
Tabular Data for January 12, 2018
Time Temperature Dew Point Pressure Wind Wind Speed Wind Gust Humidity Rainfall Rate (Hourly)
00:02 47.1 °F /  8.4 °C 45.7 °F /  7.6 °C 30.32 in /  1026.6 hPa Calm     95 % 0.00 in /  0 mm
00:10 47.2 °F /  8.4 °C 45.8 °F /  7.7 °C 30.32 in /  1026.6 hPa Calm     95 % 0.00 in /  0 mm
00:22 47.0 °F /  8.3 °C 45.6 °F /  7.6 °C 30.32 in /  1026.6 hPa Calm     95 % 0.00 in /  0 mm
00:34 46.7 °F /  8.2 °C 45.3 °F /  7.4 °C 30.33 in /  1027 hPa Calm     95 % 0.00 in /  0 mm
00:42 46.7 °F /  8.2 °C 45.3 °F /  7.4 °C 30.33 in /  1027 hPa Calm     95 % 0.00 in /  0 mm
00:56 46.6 °F /  8.1 °C 45.2 °F /  7.3 °C 30.33 in /  1027 hPa Calm     95 % 0.00 in /  0 mm
01:09 47.7 °F /  8.7 °C 46.6 °F /  8.1 °C 30.33 in /  1027 hPa Calm     96 % 0.00 in /  0 mm
01:27 48.6 °F /  9.2 °C 47.5 °F /  8.6 °C 30.33 in /  1027 hPa Calm     96 % 0.00 in /  0 mm
01:37 49.0 °F /  9.4 °C 47.9 °F /  8.8 °C 30.33 in /  1027 hPa Calm     96 % 0.00 in /  0 mm
01:45 49.3 °F /  9.6 °C 48.2 °F /  9 °C 30.33 in /  1027 hPa Calm     96 % 0.00 in /  0 mm
01:55 49.5 °F /  9.7 °C 48.4 °F /  9.1 °C 30.32 in /  1026.6 hPa Calm     96 % 0.00 in /  0 mm
02:03 49.7 °F /  9.8 °C 48.6 °F /  9.2 °C 30.33 in /  1027 hPa Calm     96 % 0.00 in /  0 mm
02:10 49.9 °F /  9.9 °C 48.8 °F /  9.3 °C 30.32 in /  1026.6 hPa Calm     96 % 0.00 in /  0 mm
02:18 49.9 °F /  9.9 °C 48.5 °F /  9.2 °C 30.33 in /  1027 hPa Calm     95 % 0.00 in /  0 mm
02:27 50.0 °F /  10 °C 48.9 °F /  9.4 °C 30.33 in /  1027 hPa Calm     96 % 0.00 in /  0 mm
02:36 50.3 °F /  10.2 °C 49.2 °F /  9.6 °C 30.32 in /  1026.6 hPa Calm     96 % 0.00 in /  0 mm
02:42 50.4 °F /  10.2 °C 49.3 °F /  9.6 °C 30.32 in /  1026.6 hPa Calm     96 % 0.00 in /  0 mm
02:47 50.5 °F /  10.3 °C 49.4 °F /  9.7 °C 30.32 in /  1026.6 hPa Calm     96 % 0.00 in /  0 mm
02:53 50.5 °F /  10.3 °C 49.4 °F /  9.7 °C 30.32 in /  1026.6 hPa Calm     96 % 0.00 in /  0 mm
03:03 50.5 °F /  10.3 °C 49.4 °F /  9.7 °C 30.31 in /  1026.3 hPa Calm     96 % 0.00 in /  0 mm
03:09 50.4 °F /  10.2 °C 49.0 °F /  9.4 °C 30.31 in /  1026.3 hPa Calm     95 % 0.00 in /  0 mm
03:36 50.4 °F /  10.2 °C 49.0 °F /  9.4 °C 30.32 in /  1026.6 hPa Calm     95 % 0.00 in /  0 mm
03:44 50.4 °F /  10.2 °C 49.0 °F /  9.4 °C 30.31 in /  1026.3 hPa Calm     95 % 0.00 in /  0 mm
03:50 50.4 °F /  10.2 °C 49.0 °F /  9.4 °C 30.32 in /  1026.6 hPa SSW 1.2 mph /  1.9 km/h   95 % 0.00 in /  0 mm
03:57 50.4 °F /  10.2 °C 49.0 °F /  9.4 °C 30.32 in /  1026.6 hPa Calm     95 % 0.00 in /  0 mm
04:02 50.4 °F /  10.2 °C 49.0 °F /  9.4 °C 30.32 in /  1026.6 hPa Calm     95 % 0.00 in /  0 mm
04:18 50.4 °F /  10.2 °C 49.0 °F /  9.4 °C 30.31 in /  1026.3 hPa Calm     95 % 0.00 in /  0 mm
04:25 50.4 °F /  10.2 °C 49.0 °F /  9.4 °C 30.31 in /  1026.3 hPa Calm     95 % 0.00 in /  0 mm
04:32 50.3 °F /  10.2 °C 49.2 °F /  9.6 °C 30.32 in /  1026.6 hPa Calm     96 % 0.00 in /  0 mm
04:41 50.3 °F /  10.2 °C 49.2 °F /  9.6 °C 30.32 in /  1026.6 hPa Calm     96 % 0.00 in /  0 mm
04:52 50.3 °F /  10.2 °C 49.2 °F /  9.6 °C 30.32 in /  1026.6 hPa SE 1.2 mph /  1.9 km/h   96 % 0.00 in /  0 mm
04:59 50.3 °F /  10.2 °C 49.2 °F /  9.6 °C 30.32 in /  1026.6 hPa Calm     96 % 0.00 in /  0 mm
05:17 50.3 °F /  10.2 °C 49.2 °F /  9.6 °C 30.33 in /  1027 hPa Calm     96 % 0.00 in /  0 mm
05:23 50.3 °F /  10.2 °C 49.2 °F /  9.6 °C 30.33 in /  1027 hPa Calm     96 % 0.00 in /  0 mm
05:29 50.3 °F /  10.2 °C 49.2 °F /  9.6 °C 30.33 in /  1027 hPa Calm     96 % 0.00 in /  0 mm
05:34 50.3 °F /  10.2 °C 49.2 °F /  9.6 °C 30.33 in /  1027 hPa Calm     96 % 0.00 in /  0 mm
05:42 50.3 °F /  10.2 °C 49.2 °F /  9.6 °C 30.33 in /  1027 hPa Calm     96 % 0.00 in /  0 mm
06:03 50.2 °F /  10.1 °C 49.1 °F /  9.5 °C 30.34 in /  1027.3 hPa Calm     96 % 0.00 in /  0 mm
06:09 50.2 °F /  10.1 °C 49.1 °F /  9.5 °C 30.34 in /  1027.3 hPa SSE 1.2 mph /  1.9 km/h   96 % 0.00 in /  0 mm
06:15 50.2 °F /  10.1 °C 49.1 °F /  9.5 °C 30.34 in /  1027.3 hPa Calm     96 % 0.00 in /  0 mm
06:21 50.2 °F /  10.1 °C 49.1 °F /  9.5 °C 30.34 in /  1027.3 hPa SSE 1.2 mph /  1.9 km/h   96 % 0.00 in /  0 mm
06:28 50.2 °F /  10.1 °C 49.1 °F /  9.5 °C 30.34 in /  1027.3 hPa Calm     96 % 0.00 in /  0 mm
06:36 50.2 °F /  10.1 °C 49.1 °F /  9.5 °C 30.34 in /  1027.3 hPa Calm     96 % 0.00 in /  0 mm
06:42 50.2 °F /  10.1 °C 49.1 °F /  9.5 °C 30.35 in /  1027.7 hPa Calm     96 % 0.00 in /  0 mm
06:47 50.2 °F /  10.1 °C 49.1 °F /  9.5 °C 30.35 in /  1027.7 hPa Calm     96 % 0.00 in /  0 mm
06:54 50.2 °F /  10.1 °C 49.1 °F /  9.5 °C 30.35 in /  1027.7 hPa Calm     96 % 0.00 in /  0 mm
06:59 50.3 °F /  10.2 °C 49.2 °F /  9.6 °C 30.35 in /  1027.7 hPa Calm     96 % 0.00 in /  0 mm
07:07 50.3 °F /  10.2 °C 49.2 °F /  9.6 °C 30.36 in /  1028 hPa Calm     96 % 0.00 in /  0 mm
07:16 50.3 °F /  10.2 °C 49.2 °F /  9.6 °C 30.36 in /  1028 hPa SSE 1.2 mph /  1.9 km/h 1.2 mph /  1.9 km/h 96 % 0.00 in /  0 mm
07:21 50.3 °F /  10.2 °C 49.2 °F /  9.6 °C 30.36 in /  1028 hPa Calm     96 % 0.00 in /  0 mm
07:38 50.4 °F /  10.2 °C 49.3 °F /  9.6 °C 30.37 in /  1028.3 hPa ESE 1.2 mph /  1.9 km/h 1.2 mph /  1.9 km/h 96 % 0.00 in /  0 mm
07:46 50.4 °F /  10.2 °C 49.3 °F /  9.6 °C 30.37 in /  1028.3 hPa ESE 1.2 mph /  1.9 km/h 1.2 mph /  1.9 km/h 96 % 0.00 in /  0 mm
07:51 50.5 °F /  10.3 °C 49.4 °F /  9.7 °C 30.37 in /  1028.3 hPa SSE 1.2 mph /  1.9 km/h 1.2 mph /  1.9 km/h 96 % 0.00 in /  0 mm
07:56 50.5 °F /  10.3 °C 49.4 °F /  9.7 °C 30.37 in /  1028.3 hPa East 1.2 mph /  1.9 km/h 1.2 mph /  1.9 km/h 96 % 0.00 in /  0 mm
08:02 50.6 °F /  10.3 °C 49.5 °F /  9.7 °C 30.37 in /  1028.3 hPa Calm     96 % 0.00 in /  0 mm
08:14 50.7 °F /  10.4 °C 49.6 °F /  9.8 °C 30.38 in /  1028.7 hPa East 1.2 mph /  1.9 km/h 1.2 mph /  1.9 km/h 96 % 0.00 in /  0 mm
08:20 50.7 °F /  10.4 °C 49.6 °F /  9.8 °C 30.38 in /  1028.7 hPa East 1.2 mph /  1.9 km/h 1.2 mph /  1.9 km/h 96 % 0.00 in /  0 mm
08:26 50.9 °F /  10.5 °C 49.8 °F /  9.9 °C 30.38 in /  1028.7 hPa East 1.2 mph /  1.9 km/h   96 % 0.00 in /  0 mm
08:34 51.0 °F /  10.6 °C 49.9 °F /  9.9 °C 30.39 in /  1029 hPa East 2.3 mph /  3.7 km/h 2.3 mph /  3.7 km/h 96 % 0.00 in /  0 mm
08:44 51.1 °F /  10.6 °C 50.0 °F /  10 °C 30.39 in /  1029 hPa East 1.2 mph /  1.9 km/h 1.2 mph /  1.9 km/h 96 % 0.00 in /  0 mm
08:51 51.2 °F /  10.7 °C 50.1 °F /  10.1 °C 30.39 in /  1029 hPa East 3.5 mph /  5.6 km/h 3.5 mph /  5.6 km/h 96 % 0.00 in /  0 mm
08:58 51.3 °F /  10.7 °C 50.2 °F /  10.1 °C 30.40 in /  1029.3 hPa East 2.0 mph /  3.2 km/h 2.0 mph /  3.2 km/h 96 % 0.00 in /  0 mm
09:09 51.5 °F /  10.8 °C 50.4 °F /  10.2 °C 30.40 in /  1029.3 hPa Calm     96 % 0.00 in /  0 mm
09:16 51.6 °F /  10.9 °C 50.5 °F /  10.3 °C 30.40 in /  1029.3 hPa East 1.2 mph /  1.9 km/h 1.2 mph /  1.9 km/h 96 % 0.00 in /  0 mm
09:38 52.2 °F /  11.2 °C 50.8 °F /  10.4 °C 30.41 in /  1029.7 hPa Calm     95 % 0.00 in /  0 mm
09:49 52.4 °F /  11.3 °C 51.0 °F /  10.6 °C 30.41 in /  1029.7 hPa East 1.2 mph /  1.9 km/h 1.2 mph /  1.9 km/h 95 % 0.00 in /  0 mm
09:55 52.6 °F /  11.4 °C 51.2 °F /  10.7 °C 30.41 in /  1029.7 hPa East 3.5 mph /  5.6 km/h 3.5 mph /  5.6 km/h 95 % 0.00 in /  0 mm
10:07 52.9 °F /  11.6 °C 51.2 °F /  10.7 °C 30.41 in /  1029.7 hPa East 1.2 mph /  1.9 km/h 1.2 mph /  1.9 km/h 94 % 0.00 in /  0 mm
10:13 53.2 °F /  11.8 °C 51.5 °F /  10.8 °C 30.41 in /  1029.7 hPa East 1.2 mph /  1.9 km/h   94 % 0.00 in /  0 mm
10:21 53.4 °F /  11.9 °C 51.4 °F /  10.8 °C 30.40 in /  1029.3 hPa Calm     93 % 0.00 in /  0 mm
10:35 54.2 °F /  12.3 °C 51.9 °F /  11.1 °C 30.40 in /  1029.3 hPa East 2.3 mph /  3.7 km/h 2.3 mph /  3.7 km/h 92 % 0.00 in /  0 mm
10:43 54.9 °F /  12.7 °C 52.3 °F /  11.3 °C 30.39 in /  1029 hPa Calm     91 % 0.00 in /  0 mm
10:58 56.5 °F /  13.6 °C 53.0 °F /  11.7 °C 30.38 in /  1028.7 hPa Calm     88 % 0.00 in /  0 mm
11:12 58.2 °F /  14.6 °C 53.7 °F /  12.1 °C 30.37 in /  1028.3 hPa Calm     85 % 0.00 in /  0 mm
11:18 58.5 °F /  14.7 °C 53.7 °F /  12.1 °C 30.37 in /  1028.3 hPa ESE 2.3 mph /  3.7 km/h 2.3 mph /  3.7 km/h 84 % 0.00 in /  0 mm
11:23 58.5 °F /  14.7 °C 54.0 °F /  12.2 °C 30.37 in /  1028.3 hPa SSE 1.2 mph /  1.9 km/h 1.2 mph /  1.9 km/h 85 % 0.00 in /  0 mm
11:32 58.8 °F /  14.9 °C 54.0 °F /  12.2 °C 30.36 in /  1028 hPa Calm     84 % 0.00 in /  0 mm
11:45 58.9 °F /  14.9 °C 53.4 °F /  11.9 °C 30.35 in /  1027.7 hPa Calm     82 % 0.00 in /  0 mm
11:59 59.1 °F /  15.1 °C 53.6 °F /  12 °C 30.34 in /  1027.3 hPa WNW 1.0 mph /  1.6 km/h 1.0 mph /  1.6 km/h 82 % 0.00 in /  0 mm
12:04 59.1 °F /  15.1 °C 53.3 °F /  11.8 °C 30.34 in /  1027.3 hPa Calm   0.3 mph /  0.5 km/h 81 % 0.00 in /  0 mm
12:09 59.3 °F /  15.2 °C 53.5 °F /  11.9 °C 30.33 in /  1027 hPa West 1.2 mph /  1.9 km/h 1.2 mph /  1.9 km/h 81 % 0.00 in /  0 mm
12:19 59.6 °F /  15.3 °C 53.8 °F /  12.1 °C 30.33 in /  1027 hPa WNW 1.2 mph /  1.9 km/h 1.2 mph /  1.9 km/h 81 % 0.00 in /  0 mm
12:26 59.5 °F /  15.3 °C 53.7 °F /  12.1 °C 30.32 in /  1026.6 hPa NW 1.2 mph /  1.9 km/h 1.2 mph /  1.9 km/h 81 % 0.00 in /  0 mm
12:38 59.7 °F /  15.4 °C 53.5 °F /  11.9 °C 30.32 in /  1026.6 hPa WNW 1.2 mph /  1.9 km/h 1.2 mph /  1.9 km/h 80 % 0.00 in /  0 mm
12:45 60.0 °F /  15.6 °C 54.2 °F /  12.3 °C 30.31 in /  1026.3 hPa NW 1.2 mph /  1.9 km/h 1.2 mph /  1.9 km/h 81 % 0.00 in /  0 mm
12:58 60.9 °F /  16.1 °C 54.0 °F /  12.2 °C 30.31 in /  1026.3 hPa North 3.0 mph /  4.8 km/h 3.0 mph /  4.8 km/h 78 % 0.00 in /  0 mm
13:05 61.1 °F /  16.2 °C 53.8 °F /  12.1 °C 30.31 in /  1026.3 hPa NW 1.2 mph /  1.9 km/h 1.2 mph /  1.9 km/h 77 % 0.00 in /  0 mm
13:12 61.8 °F /  16.6 °C 54.2 °F /  12.3 °C 30.30 in /  1026 hPa SSW 1.2 mph /  1.9 km/h 1.2 mph /  1.9 km/h 76 % 0.00 in /  0 mm
13:19 61.6 °F /  16.4 °C 54.0 °F /  12.2 °C 30.30 in /  1026 hPa WNW 1.2 mph /  1.9 km/h 1.2 mph /  1.9 km/h 76 % 0.00 in /  0 mm
13:27 62.0 °F /  16.7 °C 54.0 °F /  12.2 °C 30.30 in /  1026 hPa WNW 2.3 mph /  3.7 km/h 2.3 mph /  3.7 km/h 75 % 0.00 in /  0 mm
13:34 61.6 °F /  16.4 °C 53.6 °F /  12 °C 30.30 in /  1026 hPa NNW 3.5 mph /  5.6 km/h 3.5 mph /  5.6 km/h 75 % 0.00 in /  0 mm
13:56 60.6 °F /  15.9 °C 52.6 °F /  11.4 °C 30.29 in /  1025.6 hPa WNW 3.5 mph /  5.6 km/h 3.5 mph /  5.6 km/h 75 % 0.00 in /  0 mm
14:12 60.6 °F /  15.9 °C 53.0 °F /  11.7 °C 30.29 in /  1025.6 hPa North 2.3 mph /  3.7 km/h 2.3 mph /  3.7 km/h 76 % 0.00 in /  0 mm
14:18 60.7 °F /  15.9 °C 52.7 °F /  11.5 °C 30.29 in /  1025.6 hPa NE 2.3 mph /  3.7 km/h 2.3 mph /  3.7 km/h 75 % 0.00 in /  0 mm
14:23 60.8 °F /  16 °C 53.2 °F /  11.8 °C 30.29 in /  1025.6 hPa NW 1.2 mph /  1.9 km/h 1.2 mph /  1.9 km/h 76 % 0.00 in /  0 mm
14:44 60.9 °F /  16.1 °C 53.3 °F /  11.8 °C 30.29 in /  1025.6 hPa NW 1.2 mph /  1.9 km/h 1.2 mph /  1.9 km/h 76 % 0.00 in /  0 mm
14:49 60.8 °F /  16 °C 53.2 °F /  11.8 °C 30.29 in /  1025.6 hPa NW 2.0 mph /  3.2 km/h 2.0 mph /  3.2 km/h 76 % 0.00 in /  0 mm
14:58 60.7 °F /  15.9 °C 53.1 °F /  11.7 °C 30.29 in /  1025.6 hPa West 2.0 mph /  3.2 km/h 2.0 mph /  3.2 km/h 76 % 0.00 in /  0 mm
15:03 60.7 °F /  15.9 °C 53.4 °F /  11.9 °C 30.29 in /  1025.6 hPa Calm     77 % 0.00 in /  0 mm
15:40 60.0 °F /  15.6 °C 52.8 °F /  11.6 °C 30.29 in /  1025.6 hPa WNW 1.2 mph /  1.9 km/h   77 % 0.00 in /  0 mm
15:46 59.9 °F /  15.5 °C 52.7 °F /  11.5 °C 30.29 in /  1025.6 hPa WNW 1.2 mph /  1.9 km/h 1.2 mph /  1.9 km/h 77 % 0.00 in /  0 mm
15:51 59.8 °F /  15.4 °C 52.6 °F /  11.4 °C 30.30 in /  1026 hPa West 1.2 mph /  1.9 km/h   77 % 0.00 in /  0 mm
16:13 59.5 °F /  15.3 °C 52.3 °F /  11.3 °C 30.30 in /  1026 hPa NW 2.0 mph /  3.2 km/h 2.0 mph /  3.2 km/h 77 % 0.00 in /  0 mm
16:24 59.3 °F /  15.2 °C 52.8 °F /  11.6 °C 30.30 in /  1026 hPa NW 2.3 mph /  3.7 km/h   79 % 0.00 in /  0 mm
16:29 59.2 °F /  15.1 °C 52.7 °F /  11.5 °C 30.30 in /  1026 hPa NW 1.2 mph /  1.9 km/h 1.3 mph /  2.1 km/h 79 % 0.00 in /  0 mm
16:49 59.0 °F /  15 °C 52.8 °F /  11.6 °C 30.30 in /  1026 hPa Calm     80 % 0.00 in /  0 mm
16:56 58.9 °F /  14.9 °C 52.7 °F /  11.5 °C 30.30 in /  1026 hPa NW 1.2 mph /  1.9 km/h 1.2 mph /  1.9 km/h 80 % 0.00 in /  0 mm
17:02 58.9 °F /  14.9 °C 52.7 °F /  11.5 °C 30.30 in /  1026 hPa NW 1.2 mph /  1.9 km/h   80 % 0.00 in /  0 mm
17:12 58.8 °F /  14.9 °C 52.3 °F /  11.3 °C 30.30 in /  1026 hPa WNW 1.2 mph /  1.9 km/h 1.2 mph /  1.9 km/h 79 % 0.00 in /  0 mm
17:23 58.6 °F /  14.8 °C 52.4 °F /  11.3 °C 30.30 in /  1026 hPa Calm     80 % 0.00 in /  0 mm
17:29 58.4 °F /  14.7 °C 52.6 °F /  11.4 °C 30.30 in /  1026 hPa Calm     81 % 0.00 in /  0 mm
17:40 58.3 °F /  14.6 °C 52.8 °F /  11.6 °C 30.31 in /  1026.3 hPa WNW 1.2 mph /  1.9 km/h 1.2 mph /  1.9 km/h 82 % 0.00 in /  0 mm
17:50 58.2 °F /  14.6 °C 52.7 °F /  11.5 °C 30.31 in /  1026.3 hPa Calm   0.1 mph /  0.2 km/h 82 % 0.00 in /  0 mm
17:59 58.1 °F /  14.5 °C 53.0 °F /  11.7 °C 30.31 in /  1026.3 hPa Calm     83 % 0.00 in /  0 mm
18:06 58.0 °F /  14.4 °C 52.9 °F /  11.6 °C 30.31 in /  1026.3 hPa North 1.2 mph /  1.9 km/h 1.2 mph /  1.9 km/h 83 % 0.00 in /  0 mm
18:11 58.0 °F /  14.4 °C 52.9 °F /  11.6 °C 30.31 in /  1026.3 hPa NNW 2.3 mph /  3.7 km/h 2.3 mph /  3.7 km/h 83 % 0.00 in /  0 mm
18:21 57.9 °F /  14.4 °C 52.8 °F /  11.6 °C 30.31 in /  1026.3 hPa Calm     83 % 0.00 in /  0 mm
18:35 57.6 °F /  14.2 °C 52.8 °F /  11.6 °C 30.31 in /  1026.3 hPa Calm     84 % 0.00 in /  0 mm
18:42 57.6 °F /  14.2 °C 52.8 °F /  11.6 °C 30.31 in /  1026.3 hPa NW 1.2 mph /  1.9 km/h 1.2 mph /  1.9 km/h 84 % 0.00 in /  0 mm
18:50 57.6 °F /  14.2 °C 52.8 °F /  11.6 °C 30.31 in /  1026.3 hPa NW 1.2 mph /  1.9 km/h 1.2 mph /  1.9 km/h 84 % 0.00 in /  0 mm
18:56 57.5 °F /  14.2 °C 52.7 °F /  11.5 °C 30.31 in /  1026.3 hPa NW 3.5 mph /  5.6 km/h 3.5 mph /  5.6 km/h 84 % 0.00 in /  0 mm
19:01 57.4 °F /  14.1 °C 52.6 °F /  11.4 °C 30.31 in /  1026.3 hPa NW 1.2 mph /  1.9 km/h 1.2 mph /  1.9 km/h 84 % 0.00 in /  0 mm
19:12 57.1 °F /  13.9 °C 52.3 °F /  11.3 °C 30.31 in /  1026.3 hPa Calm     84 % 0.00 in /  0 mm
19:27 56.9 °F /  13.8 °C 52.4 °F /  11.3 °C 30.31 in /  1026.3 hPa Calm     85 % 0.00 in /  0 mm
19:43 56.7 °F /  13.7 °C 52.2 °F /  11.2 °C 30.31 in /  1026.3 hPa Calm     85 % 0.00 in /  0 mm
20:03 56.5 °F /  13.6 °C 52.4 °F /  11.3 °C 30.31 in /  1026.3 hPa NNE 1.0 mph /  1.6 km/h 1.0 mph /  1.6 km/h 86 % 0.00 in /  0 mm
20:11 56.5 °F /  13.6 °C 52.4 °F /  11.3 °C 30.31 in /  1026.3 hPa Calm     86 % 0.00 in /  0 mm
20:20 56.4 °F /  13.6 °C 51.9 °F /  11.1 °C 30.31 in /  1026.3 hPa Calm     85 % 0.00 in /  0 mm
20:27 56.3 °F /  13.5 °C 51.8 °F /  11 °C 30.31 in /  1026.3 hPa Calm     85 % 0.00 in /  0 mm
20:32 56.2 °F /  13.4 °C 51.7 °F /  10.9 °C 30.31 in /  1026.3 hPa Calm     85 % 0.00 in /  0 mm
20:52 55.9 °F /  13.3 °C 51.8 °F /  11 °C 30.31 in /  1026.3 hPa Calm     86 % 0.00 in /  0 mm
21:13 55.6 °F /  13.1 °C 51.5 °F /  10.8 °C 30.31 in /  1026.3 hPa Calm     86 % 0.00 in /  0 mm
21:19 55.5 °F /  13.1 °C 51.4 °F /  10.8 °C 30.31 in /  1026.3 hPa Calm     86 % 0.00 in /  0 mm
21:35 54.8 °F /  12.7 °C 51.3 °F /  10.7 °C 30.31 in /  1026.3 hPa Calm     88 % 0.00 in /  0 mm
21:58 54.6 °F /  12.6 °C 51.1 °F /  10.6 °C 30.31 in /  1026.3 hPa Calm     88 % 0.00 in /  0 mm
22:03 54.2 °F /  12.3 °C 51.0 °F /  10.6 °C 30.30 in /  1026 hPa Calm     89 % 0.00 in /  0 mm
22:11 53.8 °F /  12.1 °C 50.9 °F /  10.5 °C 30.30 in /  1026 hPa Calm     90 % 0.00 in /  0 mm
22:17 53.7 °F /  12.1 °C 50.8 °F /  10.4 °C 30.30 in /  1026 hPa Calm     90 % 0.00 in /  0 mm
22:30 53.5 °F /  11.9 °C 50.6 °F /  10.3 °C 30.30 in /  1026 hPa Calm     90 % 0.00 in /  0 mm
22:36 53.4 °F /  11.9 °C 50.5 °F /  10.3 °C 30.29 in /  1025.6 hPa Calm     90 % 0.00 in /  0 mm
22:41 53.2 °F /  11.8 °C 50.3 °F /  10.2 °C 30.30 in /  1026 hPa Calm     90 % 0.00 in /  0 mm
22:55 52.0 °F /  11.1 °C 49.7 °F /  9.8 °C 30.29 in /  1025.6 hPa Calm     92 % 0.00 in /  0 mm
23:00 52.0 °F /  11.1 °C 49.7 °F /  9.8 °C 30.29 in /  1025.6 hPa Calm     92 % 0.00 in /  0 mm
23:14 52.0 °F /  11.1 °C 50.0 °F /  10 °C 30.29 in /  1025.6 hPa Calm     93 % 0.00 in /  0 mm
23:25 51.5 °F /  10.8 °C 49.5 °F /  9.7 °C 30.29 in /  1025.6 hPa NW 1.2 mph /  1.9 km/h 1.2 mph /  1.9 km/h 93 % 0.00 in /  0 mm
23:31 51.2 °F /  10.7 °C 49.2 °F /  9.6 °C 30.29 in /  1025.6 hPa WNW 1.0 mph /  1.6 km/h   93 % 0.00 in /  0 mm
23:48 50.4 °F /  10.2 °C 48.7 °F /  9.3 °C 30.29 in /  1025.6 hPa NW 1.2 mph /  1.9 km/h 1.2 mph /  1.9 km/h 94 % 0.00 in /  0 mm
23:57 50.0 °F /  10 °C 48.3 °F /  9.1 °C 30.29 in /  1025.6 hPa Calm     94 % 0.00 in /  0 mm
Park Place, Exeter, Tulare County, California, USA
Compliments of Weather Underground - 2 mb